Time;durP1;ratioP1;P1;durP2;ratioP2;P2;SDS_P1;SDS_P2;PMS_P1;PMS_P2;Temp;Humidity;BMP_temperature;BMP_pressure;BME280_temperature;BME280_humidity;BME280_pressure;Samples;Min_cycle;Max_cycle;Signal;HPM_P1;HPM_P2
2022/03/01 00:00:36;;;;;;;;;;;;;;;13.07;58.21;102003.31;4994808;28;1008;-32
2022/03/01 00:03:15;;;;;;;;;;;;;;;13.10;58.54;101997.88;4994354;28;1404;-32
2022/03/01 00:05:41;;;;;;;;;;;;;;;13.06;58.02;101993.63;4994706;28;1087;-32
2022/03/01 00:08:17;;;;;;;;;;;;;;;13.05;58.21;101995.44;4994598;28;1914;-32
2022/03/01 00:10:43;;;;;;;;;;;;;;;13.06;58.14;101996.28;4994734;28;1081;-32
2022/03/01 00:13:10;;;;;;;;;;;;;;;13.06;58.31;101991.81;4994843;28;1084;-32
2022/03/01 00:15:37;;;;;;;;;;;;;;;13.05;58.51;101979.50;4994601;28;1091;-32
2022/03/01 00:18:04;;;;;;;;;;;;;;;13.04;58.37;101969.78;4994563;28;1091;-32
2022/03/01 00:20:30;;;;;;;;;;;;;;;13.07;58.49;101977.63;4994438;28;1003;-32
2022/03/01 00:22:56;;;;;;;;;;;;;;;13.10;58.37;101988.09;4994484;28;1000;-32
2022/03/01 00:25:24;;;;;;;;;;;;;;;13.08;58.09;101983.78;4994447;28;1078;-32
2022/03/01 00:27:51;;;;;;;;;;;;;;;13.08;58.38;101997.94;4994122;28;1128;-32
2022/03/01 00:30:17;;;;;;;;;;;;;;;13.09;58.40;101991.72;4994049;28;1968;-32
2022/03/01 00:32:44;;;;;;;;;;;;;;;13.10;58.18;101993.41;4994300;28;1001;-32
2022/03/01 00:35:10;;;;;;;;;;;;;;;13.06;58.06;101998.94;4994335;28;997;-32
2022/03/01 00:37:36;;;;;;;;;;;;;;;13.02;58.17;101995.53;4994569;28;1948;-32
2022/03/01 00:40:04;;;;;;;;;;;;;;;13.00;58.21;101973.50;4994326;28;1086;-32
2022/03/01 00:42:32;;;;;;;;;;;;;;;13.01;58.83;101983.22;4993998;28;1068;-32
2022/03/01 00:44:58;;;;;;;;;;;;;;;13.02;58.37;101984.91;4994684;28;1121;-32
2022/03/01 00:47:25;;;;;;;;;;;;;;;13.02;58.94;101986.72;4997866;28;1079;-32
2022/03/01 00:49:51;;;;;;;;;;;;;;;13.05;58.61;101995.44;4997931;28;1906;-32
2022/03/01 00:52:18;;;;;;;;;;;;;;;13.07;58.42;101980.28;4997958;28;1088;-32
2022/03/01 00:54:44;;;;;;;;;;;;;;;13.07;58.43;101987.38;4997753;28;1084;-32
2022/03/01 00:57:11;;;;;;;;;;;;;;;13.04;58.18;101993.69;4997845;28;1072;-32
2022/03/01 00:59:39;;;;;;;;;;;;;;;13.06;58.35;101991.81;4997779;28;1135;-32
2022/03/01 01:02:05;;;;;;;;;;;;;;;13.03;58.31;101991.97;4997977;28;1419;-32
2022/03/01 01:04:38;;;;;;;;;;;;;;;13.05;58.46;101992.78;4997743;28;1500;-32
2022/03/01 01:07:05;;;;;;;;;;;;;;;13.08;58.33;101995.28;4997901;28;1078;-32
2022/03/01 01:09:31;;;;;;;;;;;;;;;13.05;58.52;101990.13;4997851;28;1977;-32
2022/03/01 01:11:58;;;;;;;;;;;;;;;13.06;58.33;102002.44;4997614;28;1068;-32
2022/03/01 01:14:25;;;;;;;;;;;;;;;13.06;58.41;101994.47;4997899;28;1087;-32
2022/03/01 01:16:53;;;;;;;;;;;;;;;13.10;58.39;101997.88;4997826;28;1083;-32
2022/03/01 01:19:19;;;;;;;;;;;;;;;13.06;58.46;101997.13;4997607;28;1076;-32
2022/03/01 01:24:29;;;;;;;;;;;;;;;13.00;58.25;101991.25;4997750;28;714;-32
2022/03/01 01:26:56;;;;;;;;;;;;;;;13.02;58.31;101998.19;4997651;28;1082;-32
2022/03/01 01:29:22;;;;;;;;;;;;;;;13.02;58.25;101994.69;4997208;28;1906;-32
2022/03/01 01:31:49;;;;;;;;;;;;;;;12.99;59.10;102001.00;4997288;28;1139;-32
2022/03/01 01:34:17;;;;;;;;;;;;;;;13.02;58.20;101990.22;4997546;28;1044;-32
2022/03/01 01:36:43;;;;;;;;;;;;;;;13.01;58.46;101999.16;4997088;28;1179;-32
2022/03/01 01:39:10;;;;;;;;;;;;;;;12.99;58.82;102002.78;4997116;28;1100;-32
2022/03/01 01:41:36;;;;;;;;;;;;;;;13.00;58.34;102002.72;4997588;28;1004;-32
2022/03/01 01:44:05;;;;;;;;;;;;;;;12.99;58.54;102006.31;4997063;28;1101;-32
2022/03/01 01:46:31;;;;;;;;;;;;;;;12.98;58.29;101999.25;4997211;28;1144;-32
2022/03/01 01:48:57;;;;;;;;;;;;;;;13.00;58.49;102002.72;4997187;28;1906;-32
2022/03/01 01:51:26;;;;;;;;;;;;;;;13.00;58.47;102008.03;4996881;28;1084;-32
2022/03/01 01:53:53;;;;;;;;;;;;;;;13.01;58.42;102006.22;4996827;28;1084;-32
2022/03/01 01:56:20;;;;;;;;;;;;;;;13.01;58.40;102009.78;4996606;28;1112;-32
2022/03/01 01:58:46;;;;;;;;;;;;;;;12.99;57.87;102006.31;4996787;28;1072;-32
2022/03/01 02:01:13;;;;;;;;;;;;;;;13.01;58.42;102009.78;4996843;28;1407;-32
2022/03/01 02:03:46;;;;;;;;;;;;;;;13.04;58.52;102014.06;4996230;28;1248;-32
2022/03/01 02:06:12;;;;;;;;;;;;;;;13.00;58.37;101997.41;4996860;28;997;-32
2022/03/01 02:08:40;;;;;;;;;;;;;;;13.00;58.35;102001.84;4996412;28;1902;-32
2022/03/01 02:11:08;;;;;;;;;;;;;;;12.97;58.33;102000.22;4996812;28;1059;-32
2022/03/01 02:13:34;;;;;;;;;;;;;;;12.96;58.19;102001.13;4997020;28;1929;-32
2022/03/01 02:16:01;;;;;;;;;;;;;;;13.01;58.40;102015.06;4996715;28;1028;-32
2022/03/01 02:18:28;;;;;;;;;;;;;;;12.99;58.46;102005.44;4996911;28;1004;-32
2022/03/01 02:20:56;;;;;;;;;;;;;;;13.00;58.25;101999.22;4996294;28;1163;-32
2022/03/01 02:23:22;;;;;;;;;;;;;;;13.01;58.57;102006.22;4996606;28;1064;-32
2022/03/01 02:25:48;;;;;;;;;;;;;;;13.03;58.36;101997.28;4996264;28;1106;-32
2022/03/01 02:28:15;;;;;;;;;;;;;;;13.03;58.64;102007.03;4996213;28;1183;-32
2022/03/01 02:30:41;;;;;;;;;;;;;;;13.03;58.36;102002.59;4996673;28;1951;-32
2022/03/01 02:33:08;;;;;;;;;;;;;;;12.99;58.38;101993.03;4996295;28;1176;-32
2022/03/01 02:35:34;;;;;;;;;;;;;;;13.03;58.44;101989.31;4996089;28;1176;-32
2022/03/01 02:38:03;;;;;;;;;;;;;;;13.02;58.55;101976.97;4996877;28;2060;-32
2022/03/01 02:40:30;;;;;;;;;;;;;;;13.01;58.53;101977.91;4995989;28;1132;-32
2022/03/01 02:42:56;;;;;;;;;;;;;;;13.03;58.50;101985.78;4995894;28;1119;-32
2022/03/01 02:45:23;;;;;;;;;;;;;;;12.98;58.44;101978.03;4996200;28;1000;-32
2022/03/01 02:47:49;;;;;;;;;;;;;;;13.02;58.68;101979.63;4996139;28;1184;-32
2022/03/01 02:50:16;;;;;;;;;;;;;;;13.02;58.48;101973.44;4996011;28;1931;-32
2022/03/01 02:52:43;;;;;;;;;;;;;;;13.03;58.25;101975.16;4996035;28;1071;-32
2022/03/01 02:55:11;;;;;;;;;;;;;;;12.94;58.37;101958.69;4995545;28;1112;-32
2022/03/01 02:57:37;;;;;;;;;;;;;;;12.93;58.45;101969.38;4996231;28;1063;-32
2022/03/01 03:02:46;;;;;;;;;;;;;;;12.93;58.52;101959.66;5058409;23;1817;-33
2022/03/01 03:05:12;;;;;;;;;;;;;;;12.96;58.53;101963.09;5015402;28;999;-33
2022/03/01 03:07:39;;;;;;;;;;;;;;;12.96;58.51;101965.75;5015105;28;1091;-33
2022/03/01 03:10:07;;;;;;;;;;;;;;;13.00;58.58;101970.00;5014689;28;1975;-33
2022/03/01 03:12:35;;;;;;;;;;;;;;;13.02;58.47;101954.84;5015265;28;999;-33
2022/03/01 03:15:02;;;;;;;;;;;;;;;13.00;58.45;101954.91;5015106;28;1015;-33
2022/03/01 03:17:28;;;;;;;;;;;;;;;12.98;58.44;101959.44;5015177;28;1011;-33
2022/03/01 03:19:55;;;;;;;;;;;;;;;12.95;58.37;101959.56;5015166;28;1082;-33
2022/03/01 03:22:21;;;;;;;;;;;;;;;12.92;58.34;101947.28;5015129;28;1090;-33
2022/03/01 03:24:48;;;;;;;;;;;;;;;12.93;58.47;101946.38;5015060;28;1078;-33
2022/03/01 03:27:14;;;;;;;;;;;;;;;12.94;58.39;101945.44;5014995;28;1103;-33
2022/03/01 03:29:42;;;;;;;;;;;;;;;12.91;58.14;101934.97;5014864;28;1902;-33
2022/03/01 03:32:08;;;;;;;;;;;;;;;12.92;58.43;101933.16;5014624;28;971;-33
2022/03/01 03:34:35;;;;;;;;;;;;;;;12.92;58.50;101941.13;5014512;28;1217;-33
2022/03/01 03:37:01;;;;;;;;;;;;;;;12.96;58.85;101944.50;5014495;28;1076;-33
2022/03/01 03:39:28;;;;;;;;;;;;;;;12.94;58.35;101928.63;5014857;28;1015;-33
2022/03/01 03:41:54;;;;;;;;;;;;;;;12.94;58.32;101928.63;5014505;28;1142;-33
2022/03/01 03:44:21;;;;;;;;;;;;;;;12.94;58.66;101933.94;5014493;28;1087;-33
2022/03/01 03:46:49;;;;;;;;;;;;;;;12.93;58.68;101937.53;5014386;28;1112;-33
2022/03/01 03:49:15;;;;;;;;;;;;;;;12.93;58.44;101937.53;5014313;28;1969;-33
2022/03/01 03:51:42;;;;;;;;;;;;;;;12.95;58.45;101933.00;5014606;28;1082;-33
2022/03/01 03:54:09;;;;;;;;;;;;;;;12.96;58.37;101915.31;5014483;28;1027;-33
2022/03/01 03:56:35;;;;;;;;;;;;;;;12.97;58.49;101917.00;5014517;28;1081;-33
2022/03/01 03:59:02;;;;;;;;;;;;;;;12.94;58.35;101908.25;5014781;28;1994;-33
2022/03/01 04:01:28;;;;;;;;;;;;;;;12.97;58.34;101912.59;5014090;28;1309;-33
2022/03/01 04:03:58;;;;;;;;;;;;;;;12.98;58.65;101919.59;5014343;28;1028;-33
2022/03/01 04:06:24;;;;;;;;;;;;;;;12.99;58.51;101916.03;5014324;28;1082;-33
2022/03/01 04:08:51;;;;;;;;;;;;;;;12.98;58.91;101908.13;5014237;28;1043;-33
2022/03/01 04:11:17;;;;;;;;;;;;;;;12.96;58.44;101916.16;5013958;28;1902;-33
2022/03/01 04:13:44;;;;;;;;;;;;;;;12.94;58.36;101912.72;5014222;28;1071;-33
2022/03/01 04:16:11;;;;;;;;;;;;;;;12.97;58.29;101906.41;5012827;28;1107;-33
2022/03/01 04:18:37;;;;;;;;;;;;;;;12.96;58.32;101913.50;5013466;28;1059;-33
2022/03/01 04:21:05;;;;;;;;;;;;;;;12.99;58.47;101921.34;5012636;28;1068;-34
2022/03/01 04:23:32;;;;;;;;;;;;;;;12.94;58.36;101924.19;5013659;28;1170;-33
2022/03/01 04:25:58;;;;;;;;;;;;;;;12.98;58.52;101924.91;5013680;28;1135;-33
2022/03/01 04:28:25;;;;;;;;;;;;;;;12.90;58.51;101911.13;5013727;28;1080;-33
2022/03/01 04:30:51;;;;;;;;;;;;;;;12.90;58.43;101919.09;5013681;28;1907;-33
2022/03/01 04:33:17;;;;;;;;;;;;;;;12.90;58.68;101916.44;5013721;28;1148;-33
2022/03/01 04:35:44;;;;;;;;;;;;;;;12.91;58.77;101918.13;5013975;28;998;-33
2022/03/01 04:38:12;;;;;;;;;;;;;;;12.88;58.74;101913.84;5013965;28;1096;-33
2022/03/01 04:40:38;;;;;;;;;;;;;;;12.95;58.39;101919.72;5014091;28;1077;-33
2022/03/01 04:43:05;;;;;;;;;;;;;;;12.98;58.09;101919.59;5013656;28;1144;-33
2022/03/01 04:45:32;;;;;;;;;;;;;;;12.93;58.21;101905.66;5013910;28;1091;-33
2022/03/01 04:47:58;;;;;;;;;;;;;;;12.93;58.40;101906.53;5013581;28;1104;-33
2022/03/01 04:50:25;;;;;;;;;;;;;;;12.96;58.56;101910.84;5013505;28;1973;-33
2022/03/01 04:52:51;;;;;;;;;;;;;;;12.95;58.37;101917.06;5013487;28;1154;-32
2022/03/01 04:55:19;;;;;;;;;;;;;;;12.90;58.51;101919.09;5013440;28;1115;-33
2022/03/01 04:57:45;;;;;;;;;;;;;;;12.96;58.28;101921.47;5013813;28;1086;-33
2022/03/01 05:00:13;;;;;;;;;;;;;;;12.96;58.37;101926.78;5013799;28;1086;-33
2022/03/01 05:02:40;;;;;;;;;;;;;;;12.89;58.30;101920.00;5013460;28;1408;-33
2022/03/01 05:05:10;;;;;;;;;;;;;;;12.88;58.72;101923.59;5013302;28;1948;-33
2022/03/01 05:07:37;;;;;;;;;;;;;;;12.87;58.50;101938.69;5013730;28;1086;-33
2022/03/01 05:10:03;;;;;;;;;;;;;;;12.88;58.56;101923.59;5013601;28;1902;-33
2022/03/01 05:12:31;;;;;;;;;;;;;;;12.87;58.28;101932.47;5013671;28;1067;-33
2022/03/01 05:14:58;;;;;;;;;;;;;;;12.87;58.36;101935.13;5013577;28;1115;-33
2022/03/01 05:17:24;;;;;;;;;;;;;;;12.88;58.51;101928.91;5013286;28;1163;-33
2022/03/01 05:19:51;;;;;;;;;;;;;;;12.87;58.52;101944.00;5013595;28;1003;-33
2022/03/01 05:22:17;;;;;;;;;;;;;;;12.87;58.54;101936.03;5013602;28;1082;-33
2022/03/01 05:24:44;;;;;;;;;;;;;;;12.88;58.33;101943.03;5013599;28;1078;-33
2022/03/01 05:27:10;;;;;;;;;;;;;;;12.89;58.42;101942.13;5013532;28;1004;-33
2022/03/01 05:29:38;;;;;;;;;;;;;;;12.89;58.38;101935.94;5013231;28;1923;-33
2022/03/01 05:32:04;;;;;;;;;;;;;;;12.89;58.33;101946.56;5014665;28;1011;-33
2022/03/01 05:34:31;;;;;;;;;;;;;;;12.93;58.47;101949.03;5017121;28;1062;-33
2022/03/01 05:36:57;;;;;;;;;;;;;;;12.91;58.66;101953.53;5017015;28;1002;-33
2022/03/01 05:39:24;;;;;;;;;;;;;;;12.89;58.47;101952.75;5017040;28;1093;-33
2022/03/01 05:41:50;;;;;;;;;;;;;;;12.89;58.41;101968.69;5017063;28;1011;-33
2022/03/01 05:44:17;;;;;;;;;;;;;;;12.90;58.41;101969.53;5017005;28;1078;-33
2022/03/01 05:46:45;;;;;;;;;;;;;;;12.91;58.35;101955.31;5016842;28;1142;-33
2022/03/01 05:49:11;;;;;;;;;;;;;;;12.87;58.45;101954.59;5016867;28;1086;-33
2022/03/01 05:51:37;;;;;;;;;;;;;;;12.89;58.64;101962.47;5016784;28;1966;-33
2022/03/01 05:54:04;;;;;;;;;;;;;;;12.91;58.49;101950.00;5016434;28;940;-33
2022/03/01 05:56:31;;;;;;;;;;;;;;;12.91;58.81;101977.44;5016423;28;1174;-33
2022/03/01 05:58:57;;;;;;;;;;;;;;;12.93;58.43;101974.69;5016655;28;1107;-33
2022/03/01 06:01:24;;;;;;;;;;;;;;;12.88;58.26;101966.06;5016156;28;1429;-33
2022/03/01 06:03:52;;;;;;;;;;;;;;;12.82;58.67;101975.16;5016552;28;1091;-33
2022/03/01 06:06:19;;;;;;;;;;;;;;;12.83;58.56;101982.22;5016724;28;935;-33
2022/03/01 06:08:45;;;;;;;;;;;;;;;12.83;58.37;101978.69;5016158;28;1151;-33
2022/03/01 06:11:12;;;;;;;;;;;;;;;12.86;58.42;101979.41;5016080;28;1979;-33
2022/03/01 06:13:38;;;;;;;;;;;;;;;12.91;58.54;101981.84;5016428;28;1092;-33
2022/03/01 06:16:06;;;;;;;;;;;;;;;12.90;58.63;101986.31;5016373;28;1105;-33
2022/03/01 06:18:32;;;;;;;;;;;;;;;12.90;58.47;101985.47;5015933;28;1187;-33
2022/03/01 06:21:01;;;;;;;;;;;;;;;12.90;58.42;101988.13;5016279;28;1073;-33
2022/03/01 06:23:28;;;;;;;;;;;;;;;12.90;58.40;101978.34;5016228;28;1004;-33
2022/03/01 06:25:54;;;;;;;;;;;;;;;12.87;58.42;101981.16;5016469;28;1007;-33
2022/03/01 06:28:21;;;;;;;;;;;;;;;12.88;58.41;101977.56;5016152;28;1032;-33
2022/03/01 06:30:47;;;;;;;;;;;;;;;12.90;58.35;101966.88;5016005;28;1956;-33
2022/03/01 06:33:14;;;;;;;;;;;;;;;12.89;58.13;101965.13;5016079;28;1123;-33
2022/03/01 06:35:40;;;;;;;;;;;;;;;12.91;58.53;101982.75;5015923;28;1064;-33
2022/03/01 06:38:08;;;;;;;;;;;;;;;12.91;58.37;101973.91;5015960;28;1054;-33
2022/03/01 06:40:34;;;;;;;;;;;;;;;12.93;58.15;101980.00;5015810;28;1071;-33
2022/03/01 06:43:01;;;;;;;;;;;;;;;12.90;58.64;101985.47;5015289;28;1020;-33
2022/03/01 06:45:27;;;;;;;;;;;;;;;12.89;58.58;101973.97;5015245;28;1109;-33
2022/03/01 06:47:54;;;;;;;;;;;;;;;12.84;58.29;101981.28;5015824;28;1012;-33
2022/03/01 06:50:20;;;;;;;;;;;;;;;12.85;58.47;101976.81;5015314;28;1906;-33
2022/03/01 06:52:47;;;;;;;;;;;;;;;12.84;58.34;101968.00;5015387;28;1143;-33
2022/03/01 06:55:15;;;;;;;;;;;;;;;12.88;58.19;101977.56;5015563;28;1074;-33
2022/03/01 06:57:42;;;;;;;;;;;;;;;12.87;58.50;101991.78;5015598;28;996;-33
2022/03/01 07:00:09;;;;;;;;;;;;;;;12.86;58.54;101976.75;5015219;28;1111;-33
2022/03/01 07:02:38;;;;;;;;;;;;;;;12.88;57.91;101976.69;5014960;28;1325;-33
2022/03/01 07:05:05;;;;;;;;;;;;;;;12.83;58.54;101970.72;5015415;28;1067;-33
2022/03/01 07:07:31;;;;;;;;;;;;;;;12.88;58.52;101971.38;5015456;28;1187;-33
2022/03/01 07:09:58;;;;;;;;;;;;;;;12.91;58.62;101981.84;5015309;28;1887;-32
2022/03/01 07:12:26;;;;;;;;;;;;;;;12.91;58.63;101981.84;5014986;28;1115;-33
2022/03/01 07:14:53;;;;;;;;;;;;;;;12.87;58.51;101974.97;5015318;28;1016;-33
2022/03/01 07:17:19;;;;;;;;;;;;;;;12.89;58.32;101983.72;5014886;28;1096;-33
2022/03/01 07:19:46;;;;;;;;;;;;;;;12.85;58.40;101977.69;5015203;28;963;-33
2022/03/01 07:22:13;;;;;;;;;;;;;;;12.90;58.34;101985.47;5015145;28;1011;-33
2022/03/01 07:24:39;;;;;;;;;;;;;;;12.86;58.50;101983.88;5015349;28;1102;-33
2022/03/01 07:27:06;;;;;;;;;;;;;;;12.88;58.48;101977.56;5015047;28;1052;-33
2022/03/01 07:29:33;;;;;;;;;;;;;;;12.89;58.63;101978.41;5014975;28;1056;-33
2022/03/01 07:32:00;;;;;;;;;;;;;;;12.90;58.42;101980.16;5014889;28;1987;-33
2022/03/01 07:34:26;;;;;;;;;;;;;;;12.88;58.67;101992.63;5014626;28;1092;-33
2022/03/01 07:36:53;;;;;;;;;;;;;;;12.84;58.52;101988.38;5014804;28;1015;-33
2022/03/01 07:39:19;;;;;;;;;;;;;;;12.79;58.49;101995.66;5014534;28;1371;-33
2022/03/01 07:41:46;;;;;;;;;;;;;;;12.86;58.30;101991.81;5014429;28;1100;-33
2022/03/01 07:44:12;;;;;;;;;;;;;;;12.87;58.35;102001.50;5014455;28;1068;-33
2022/03/01 07:46:40;;;;;;;;;;;;;;;12.85;58.80;101998.06;5014393;28;1166;-33
2022/03/01 07:49:06;;;;;;;;;;;;;;;12.87;58.21;102001.50;5014689;28;990;-33
2022/03/01 07:51:33;;;;;;;;;;;;;;;12.85;58.72;102003.38;5014544;28;1902;-33
2022/03/01 07:54:00;;;;;;;;;;;;;;;12.89;58.75;101997.00;5014522;28;1003;-33
2022/03/01 07:56:26;;;;;;;;;;;;;;;12.87;58.50;102010.34;5014621;28;1082;-33
2022/03/01 07:58:53;;;;;;;;;;;;;;;12.91;58.53;102003.09;5014486;28;1093;-33
2022/03/01 08:01:19;;;;;;;;;;;;;;;12.88;58.38;102008.56;5014132;28;1392;-33
2022/03/01 08:03:48;;;;;;;;;;;;;;;12.87;58.45;102004.16;5014438;28;1078;-33
2022/03/01 08:06:14;;;;;;;;;;;;;;;12.87;58.45;102006.81;5014325;28;1007;-33
2022/03/01 08:08:41;;;;;;;;;;;;;;;12.86;58.14;102005.09;5013939;28;1221;-33
2022/03/01 08:11:07;;;;;;;;;;;;;;;12.91;58.38;102024.34;5014295;28;1977;-33
2022/03/01 08:13:34;;;;;;;;;;;;;;;12.90;58.21;102027.94;5014266;28;999;-33
2022/03/01 08:16:01;;;;;;;;;;;;;;;12.88;58.25;102021.84;5014228;28;1065;-33
2022/03/01 08:18:27;;;;;;;;;;;;;;;12.88;58.65;102024.47;5013812;28;1100;-33
2022/03/01 08:20:57;;;;;;;;;;;;;;;12.83;58.52;102026.47;5013900;28;1175;-33
2022/03/01 08:23:24;;;;;;;;;;;;;;;12.80;58.74;102021.28;5014146;28;1020;-33
2022/03/01 08:25:50;;;;;;;;;;;;;;;12.84;58.68;102034.34;5014154;28;1093;-33
2022/03/01 08:28:16;;;;;;;;;;;;;;;12.78;58.73;102026.66;5014103;28;1020;-33
2022/03/01 08:30:43;;;;;;;;;;;;;;;12.79;58.33;102028.38;5014155;28;1902;-33
2022/03/01 08:33:10;;;;;;;;;;;;;;;12.77;58.55;102022.25;5014030;28;1121;-33
2022/03/01 08:35:36;;;;;;;;;;;;;;;12.76;58.13;102033.81;5013995;28;1052;-33
2022/03/01 08:38:05;;;;;;;;;;;;;;;12.77;58.25;102026.72;5013721;28;1174;-33
2022/03/01 08:40:32;;;;;;;;;;;;;;;12.77;58.48;102021.41;5013697;28;1150;-33
2022/03/01 08:42:58;;;;;;;;;;;;;;;12.77;58.44;102029.38;5013892;28;1099;-33
2022/03/01 08:45:25;;;;;;;;;;;;;;;12.78;58.02;102023.16;5013927;28;1071;-33
2022/03/01 08:47:52;;;;;;;;;;;;;;;12.80;58.36;102031.91;5013919;28;1085;-33
2022/03/01 08:50:19;;;;;;;;;;;;;;;12.78;58.43;102024.00;5013588;28;1119;-34
2022/03/01 08:52:45;;;;;;;;;;;;;;;12.83;58.48;102024.69;5013723;28;1969;-35
2022/03/01 08:55:13;;;;;;;;;;;;;;;12.85;58.44;102036.09;5011544;28;1623;-33
2022/03/01 08:57:40;;;;;;;;;;;;;;;12.84;58.65;102034.34;5006067;28;1945;-33
2022/03/01 09:00:08;;;;;;;;;;;;;;;12.86;58.35;102027.19;5009305;28;1959;-33
2022/03/01 09:02:35;;;;;;;;;;;;;;;12.88;58.33;102030.66;5013265;28;1250;-33
2022/03/01 09:05:01;;;;;;;;;;;;;;;12.82;58.49;102024.75;5013602;28;1087;-33
2022/03/01 09:07:28;;;;;;;;;;;;;;;12.81;58.19;102029.19;5015187;28;1088;-33
2022/03/01 09:09:54;;;;;;;;;;;;;;;12.78;58.51;102017.84;5016061;28;1570;-33
2022/03/01 09:12:22;;;;;;;;;;;;;;;12.78;58.20;102020.50;5015307;28;1906;-33
2022/03/01 09:14:48;;;;;;;;;;;;;;;12.80;58.49;102013.31;5017433;28;1071;-33
2022/03/01 09:17:15;;;;;;;;;;;;;;;12.86;58.39;102018.38;5016946;28;1068;-33
2022/03/01 09:19:41;;;;;;;;;;;;;;;12.87;58.69;102009.47;5015778;28;1155;-33
2022/03/01 09:22:08;;;;;;;;;;;;;;;12.82;58.12;101995.53;5017593;28;1016;-33
2022/03/01 09:24:34;;;;;;;;;;;;;;;12.85;58.38;101998.06;5017259;28;1380;-33
2022/03/01 09:27:02;;;;;;;;;;;;;;;12.88;58.28;101997.94;5016970;28;1088;-33
2022/03/01 09:29:30;;;;;;;;;;;;;;;12.91;58.38;102001.34;5017178;28;1043;-33
2022/03/01 09:31:57;;;;;;;;;;;;;;;12.93;58.06;102006.53;5017566;28;1989;-33
2022/03/01 09:34:24;;;;;;;;;;;;;;;12.93;58.39;101995.94;5018694;28;1185;-33
2022/03/01 09:36:50;;;;;;;;;;;;;;;12.92;58.34;102000.38;5017887;28;1027;-33
2022/03/01 09:39:17;;;;;;;;;;;;;;;12.95;58.09;101999.38;5017064;28;1016;-33
2022/03/01 09:41:44;;;;;;;;;;;;;;;12.91;58.31;101993.38;5017285;28;1008;-36
2022/03/01 09:44:10;;;;;;;;;;;;;;;12.92;58.29;101979.16;5017519;28;1008;-33
2022/03/01 09:46:39;;;;;;;;;;;;;;;12.93;58.39;101987.97;5016609;28;1155;-33
2022/03/01 09:49:06;;;;;;;;;;;;;;;12.96;58.12;101987.84;5017139;28;1000;-33
2022/03/01 09:51:33;;;;;;;;;;;;;;;12.98;58.25;101983.34;5016797;28;1902;-33
2022/03/01 09:53:59;;;;;;;;;;;;;;;12.88;58.09;101988.16;5016887;28;1094;-33
2022/03/01 09:56:26;;;;;;;;;;;;;;;12.88;58.14;101976.69;5016723;28;1079;-33
2022/03/01 09:58:52;;;;;;;;;;;;;;;12.91;58.32;101989.81;5017002;28;1087;-33
2022/03/01 10:01:19;;;;;;;;;;;;;;;12.92;58.27;101972.97;5016286;28;1317;-33
2022/03/01 10:03:48;;;;;;;;;;;;;;;12.95;58.27;101967.53;5016298;28;1077;-33
2022/03/01 10:06:16;;;;;;;;;;;;;;;12.98;57.92;101956.78;5016437;28;1077;-33
2022/03/01 10:08:43;;;;;;;;;;;;;;;12.98;57.82;101967.41;5016124;28;1076;-33
2022/03/01 10:11:09;;;;;;;;;;;;;;;13.01;58.06;101982.31;5016654;28;1981;-33
2022/03/01 10:13:36;;;;;;;;;;;;;;;13.01;57.84;101967.28;5016413;28;1048;-33
2022/03/01 10:16:04;;;;;;;;;;;;;;;12.98;57.92;101970.06;5016073;28;1147;-33
2022/03/01 10:18:31;;;;;;;;;;;;;;;12.94;57.96;101973.78;5014882;28;1071;-33
2022/03/01 10:21:03;;;;;;;;;;;;;;;12.94;57.97;101977.28;5016268;28;1090;-33
2022/03/01 10:23:29;;;;;;;;;;;;;;;12.95;58.34;101962.22;5015936;28;1069;-33
2022/03/01 10:25:56;;;;;;;;;;;;;;;12.99;57.88;101962.94;5015882;28;1084;-33
2022/03/01 10:28:31;;;;;;;;;;;;;;;12.95;58.50;101956.91;5016056;28;936;-33
2022/03/01 10:30:58;;;;;;;;;;;;;;;12.98;57.71;101956.78;5016047;28;1244;-33
2022/03/01 10:33:24;;;;;;;;;;;;;;;13.03;57.68;101949.50;5016020;28;1902;-33
2022/03/01 10:35:57;;;;;;;;;;;;;;;13.01;57.60;101935.41;5016081;28;1083;-33
2022/03/01 10:38:25;;;;;;;;;;;;;;;13.04;57.92;101950.34;5015695;28;1088;-33
2022/03/01 10:40:57;;;;;;;;;;;;;;;12.98;58.04;101945.31;5015942;28;1008;-33
2022/03/01 10:43:25;;;;;;;;;;;;;;;12.96;57.94;101945.38;5015593;28;1345;-33
2022/03/01 10:45:52;;;;;;;;;;;;;;;12.96;57.90;101932.09;5015826;28;1094;-33
2022/03/01 10:48:24;;;;;;;;;;;;;;;13.03;57.70;101938.88;5015509;28;1080;-33
2022/03/01 10:50:58;;;;;;;;;;;;;;;13.07;57.81;101928.94;5015722;28;1090;-33
2022/03/01 10:53:29;;;;;;;;;;;;;;;13.05;57.56;101923.72;5015551;28;1902;-33
2022/03/01 10:56:00;;;;;;;;;;;;;;;13.06;57.77;101933.41;5015539;28;1075;-33
2022/03/01 10:58:26;;;;;;;;;;;;;;;13.08;57.62;101925.38;5015598;28;1079;-33
2022/03/01 11:00:53;;;;;;;;;;;;;;;13.04;57.67;101924.66;5015309;28;1304;-33
2022/03/01 11:03:19;;;;;;;;;;;;;;;13.02;57.67;101921.19;5015435;28;1526;-33
2022/03/01 11:05:47;;;;;;;;;;;;;;;13.04;57.82;101929.09;5015358;28;1090;-33
2022/03/01 11:08:14;;;;;;;;;;;;;;;13.04;57.71;101934.41;5015081;28;1139;-33
2022/03/01 11:10:42;;;;;;;;;;;;;;;13.02;57.70;101926.50;5015383;28;1055;-33
2022/03/01 11:13:08;;;;;;;;;;;;;;;13.02;58.21;101921.19;5014944;28;1910;-33
2022/03/01 11:15:40;;;;;;;;;;;;;;;13.05;57.92;101925.50;5014958;28;952;-33
2022/03/01 11:18:13;;;;;;;;;;;;;;;13.02;57.85;101934.47;5014887;28;1084;-33
2022/03/01 11:20:43;;;;;;;;;;;;;;;13.01;57.92;101924.78;5015193;28;1012;-33
2022/03/01 11:23:11;;;;;;;;;;;;;;;12.97;57.91;101917.91;5014807;28;1100;-33
2022/03/01 11:25:38;;;;;;;;;;;;;;;12.97;57.96;101920.56;5015070;28;1075;-33
2022/03/01 11:28:09;;;;;;;;;;;;;;;12.93;58.46;101910.97;5015072;28;1043;-33
2022/03/01 11:30:37;;;;;;;;;;;;;;;12.89;58.15;101920.88;5014203;28;1144;-33
2022/03/01 11:33:04;;;;;;;;;;;;;;;12.88;58.33;101911.19;5014841;28;1878;-33
2022/03/01 11:35:31;;;;;;;;;;;;;;;12.92;58.17;101926.03;5014618;28;964;-33
2022/03/01 11:38:04;;;;;;;;;;;;;;;12.93;58.40;101910.97;5014499;28;1108;-33
2022/03/01 11:40:31;;;;;;;;;;;;;;;12.97;57.97;101927.63;5014852;28;1020;-33
2022/03/01 11:43:08;;;;;;;;;;;;;;;12.94;58.01;101912.72;5014862;28;1048;-33
2022/03/01 11:45:35;;;;;;;;;;;;;;;12.94;58.29;101916.22;5014395;28;1092;-33
2022/03/01 11:48:05;;;;;;;;;;;;;;;12.96;57.98;101915.31;5014391;28;1060;-33
2022/03/01 11:50:32;;;;;;;;;;;;;;;12.97;57.95;101907.28;5014353;28;1083;-33
2022/03/01 11:53:02;;;;;;;;;;;;;;;12.94;58.19;101913.56;5014473;28;1906;-33
2022/03/01 11:55:34;;;;;;;;;;;;;;;12.97;58.09;101907.28;5014137;28;1084;-33
2022/03/01 11:58:01;;;;;;;;;;;;;;;12.88;58.51;101907.69;5014201;28;1016;-33
2022/03/01 12:00:29;;;;;;;;;;;;;;;12.83;58.40;101913.19;5014337;28;1104;-33
2022/03/01 12:02:58;;;;;;;;;;;;;;;12.84;58.23;101909.59;5013962;28;1409;-33
2022/03/01 12:05:26;;;;;;;;;;;;;;;12.81;58.35;101907.09;5014039;28;1080;-33
2022/03/01 12:07:53;;;;;;;;;;;;;;;12.85;58.46;101913.09;5014300;28;1066;-33
2022/03/01 12:10:20;;;;;;;;;;;;;;;12.85;58.31;101913.09;5014330;28;988;-33
2022/03/01 12:12:48;;;;;;;;;;;;;;;12.86;58.08;101901.56;5014223;28;1910;-33
2022/03/01 12:15:25;;;;;;;;;;;;;;;12.86;58.34;101909.53;5014267;28;1070;-33
2022/03/01 12:17:53;;;;;;;;;;;;;;;12.89;58.28;101904.06;5014180;28;1074;-33
2022/03/01 12:20:21;;;;;;;;;;;;;;;12.86;58.58;101906.88;5014189;28;1086;-33
2022/03/01 12:22:54;;;;;;;;;;;;;;;12.86;58.56;101905.06;5014173;28;1008;-33
2022/03/01 12:25:21;;;;;;;;;;;;;;;12.87;58.55;101900.63;5014155;28;1070;-33
2022/03/01 12:27:48;;;;;;;;;;;;;;;12.86;58.44;101888.31;5014115;28;1008;-33
2022/03/01 12:30:18;;;;;;;;;;;;;;;12.86;58.28;101883.84;5013993;28;960;-33
2022/03/01 12:32:49;;;;;;;;;;;;;;;12.89;58.71;101891.69;5013967;28;1906;-33
2022/03/01 12:35:17;;;;;;;;;;;;;;;12.87;58.43;101884.69;5013750;28;1136;-33
2022/03/01 12:37:43;;;;;;;;;;;;;;;12.88;58.33;101883.78;5014837;28;1061;-33
2022/03/01 12:40:11;;;;;;;;;;;;;;;12.87;58.60;101898.84;5013666;28;944;-33
2022/03/01 12:42:38;;;;;;;;;;;;;;;12.89;58.40;101889.03;5012766;28;1120;-33
2022/03/01 12:45:05;;;;;;;;;;;;;;;12.87;58.15;101884.69;5014171;28;1004;-33
2022/03/01 12:47:31;;;;;;;;;;;;;;;12.88;58.35;101886.44;5013863;28;1003;-33
2022/03/01 12:49:57;;;;;;;;;;;;;;;12.88;58.26;101881.13;5014113;28;1089;-33
2022/03/01 12:52:25;;;;;;;;;;;;;;;12.89;58.32;101888.16;5013752;28;1906;-33